Latest Weather Observations for Aireys Inlet

IDV60801

Issued at 9:31 am EDT Monday 2 February 2015 (issued every 30 minutes, with the page automatically refreshed every 10 minutes)

About weather observations | Map of weather stations | Latest weather observations for VIC | Other Formats
Station Details ID: 090180 Name: AIREYS INLET Lat: -38.46 Lon: 144.09 Height: 95.0 m
Data from the previous 72 hours. | See also: Recent months at Aireys Inlet
Date/Time
EDT
Temp
°C
App
Temp
°C
Dew
Point
Rel
Hum
%
Delta-T
°C
Wind Press
QNH
hPa
Press
MSL
hPa
Rain
since 9 am
mm
Dir
 
Spd
km/h
Gust
km/h
Spd
kts
Gust
kts
02/09:30am 16.1 11.8 10.6 70 2.9 SSW 24 33 13 18 - - 0.0
02/09:00am 15.6 11.3 10.6 72 2.7 SSW 24 35 13 19 - - 0.0
02/08:30am 15.1 11.6 10.9 76 2.2 SSW 20 32 11 17 - - 0.0
02/08:00am 14.8 11.2 10.6 76 2.2 SSW 20 32 11 17 - - 0.0
02/07:30am 14.8 11.5 10.8 77 2.1 SSW 19 28 10 15 - - 0.0
02/07:00am 14.5 11.1 10.5 77 2.1 SSW 19 28 10 15 - - 0.0
02/06:30am 14.6 10.4 9.6 72 2.6 S 22 30 12 16 - - 0.0
02/06:00am 14.5 10.4 10.1 75 2.3 SSW 22 35 12 19 - - 0.0
02/05:30am 14.6 10.8 9.8 73 2.5 S 20 35 11 19 - - 0.0
02/05:00am 14.6 11.0 10.4 76 2.2 SSW 20 30 11 16 - - 0.0
02/04:30am 14.6 10.1 10.0 74 2.4 SSW 24 37 13 20 - - 0.0
02/04:00am 14.4 10.2 9.6 73 2.5 SSW 22 35 12 19 - - 0.0
02/03:30am 14.4 9.5 9.8 74 2.4 SSW 26 39 14 21 - - 0.0
02/03:00am 14.4 9.5 10.0 75 2.3 SSW 26 39 14 21 - - 0.0
02/02:30am 14.3 8.7 10.1 76 2.2 SSW 30 43 16 23 - - 0.0
02/02:00am 14.3 9.0 9.7 74 2.4 S 28 39 15 21 - - 0.0
02/01:41am 14.5 9.3 10.1 75 2.3 SSW 28 48 15 26 - - 0.0
02/01:30am 14.4 9.1 9.8 74 2.4 SSW 28 41 15 22 - - 0.0
02/01:00am 14.5 9.2 9.9 74 2.4 SSW 28 41 15 22 - - 0.0
02/12:30am 14.4 8.9 10.4 77 2.1 SSW 30 46 16 25 - - 0.0
02/12:05am 14.2 8.8 10.8 80 1.8 SSW 30 48 16 26 - - 0.0
02/12:00am 14.2 8.8 11.0 81 1.7 SSW 30 46 16 25 - - 0.0
 
Date/Time
EDT
Temp
°C
App
Temp
°C
Dew
Point
Rel
Hum
%
Delta-T
°C
Wind Press
QNH
hPa
Press
MSL
hPa
Rain
since 9 am
mm
Dir
 
Spd
km/h
Gust
km/h
Spd
kts
Gust
kts
01/11:56pm 14.4 8.7 11.2 81 1.7 SSW 32 50 17 27 - - 0.0
01/11:30pm 14.7 8.2 10.3 75 2.3 SSW 35 50 19 27 - - 0.0
01/11:08pm 14.7 8.7 10.1 74 2.4 SSW 32 50 17 27 - - 0.0
01/11:00pm 14.7 8.5 10.1 74 2.4 SSW 33 50 18 27 - - 0.0
01/10:30pm 14.6 8.1 10.2 75 2.3 SSW 35 57 19 31 - - 0.0
01/10:00pm 14.5 7.9 10.1 75 2.3 SSW 35 50 19 27 - - 0.0
01/09:30pm 14.5 8.4 10.3 76 2.2 SSW 33 52 18 28 - - 0.0
01/09:00pm 14.7 8.5 10.1 74 2.4 SSW 33 48 18 26 - - 0.0
01/08:30pm 14.8 8.4 10.8 77 2.1 SSW 35 50 19 27 - - 0.0
01/08:22pm 14.9 8.9 10.7 76 2.2 SSW 33 52 18 28 - - 0.0
01/08:00pm 15.2 9.3 11.0 76 2.2 SSW 33 50 18 27 - - 0.0
01/07:30pm 15.5 9.7 10.9 74 2.5 SSW 32 48 17 26 - - 0.0
01/07:14pm 15.7 9.4 10.9 73 2.6 SSW 35 54 19 29 - - 0.0
01/07:00pm 15.8 10.1 11.0 73 2.6 SSW 32 50 17 27 - - 0.0
01/06:51pm 16.3 10.6 11.2 72 2.8 SSW 32 50 17 27 - - 0.0
01/06:30pm 16.3 10.4 11.0 71 2.8 SSW 33 48 18 26 - - 0.0
01/06:00pm 16.0 10.3 11.2 73 2.6 SSW 32 46 17 25 - - 0.0
01/05:30pm 16.0 10.4 11.6 75 2.4 SSW 32 48 17 26 - - 0.0
01/05:00pm 15.8 10.3 12.0 78 2.1 SSW 32 44 17 24 - - 0.0
01/04:30pm 16.3 11.4 12.5 78 2.1 SSW 30 41 16 22 - - 0.0
01/04:00pm 16.4 11.1 12.6 78 2.1 SSW 32 43 17 23 - - 0.0
01/03:30pm 16.4 12.0 12.9 80 2.0 SSW 28 41 15 22 - - 0.0
01/03:00pm 16.2 11.3 12.6 79 2.0 SSW 30 41 16 22 - - 0.0
01/02:30pm 16.0 11.5 12.7 81 1.8 SSW 28 39 15 21 - - 0.0
01/02:00pm 15.6 12.1 13.3 86 1.3 SSW 24 37 13 20 - - 0.0
01/01:30pm 15.7 12.1 13.2 85 1.4 SSW 24 35 13 19 - - 0.0
01/01:00pm 15.8 11.8 12.9 83 1.6 SSW 26 35 14 19 - - 0.0
01/12:30pm 15.9 11.9 13.0 83 1.6 S 26 37 14 20 - - 0.0
01/12:13pm 16.1 11.8 13.2 83 1.6 SSW 28 46 15 25 - - 0.0
01/12:00pm 16.6 13.0 13.1 80 2.0 SSW 24 35 13 19 - - 0.0
01/11:30am 16.3 12.4 13.4 83 1.6 SSW 26 41 14 22 - - 0.0
01/11:00am 16.3 12.6 14.0 86 1.3 S 26 39 14 21 - - 0.0
01/10:30am 16.0 11.7 13.3 84 1.5 SSW 28 43 15 23 - - 0.0
01/10:00am 15.6 12.6 13.6 88 1.1 SW 22 35 12 19 - - 0.0
01/09:30am 15.5 11.8 13.9 90 0.9 SSW 26 43 14 23 - - 0.0
01/09:00am 14.3 9.8 13.8 97 0.3 SSW 30 44 16 24 - - 1.6
01/08:30am 14.1 10.0 13.9 99 0.1 SSW 28 43 15 23 - - 1.6
01/08:00am 13.5 10.4 13.5 100 0.0 SW 22 41 12 22 - - 1.6
01/07:30am 13.4 9.5 13.4 100 0.0 SSW 26 43 14 23 - - 1.2
01/07:00am 12.8 9.9 12.8 100 0.0 WSW 20 28 11 15 - - 1.0
01/06:30am 12.9 9.2 12.7 99 0.1 SW 24 35 13 19 - - 0.8
01/06:00am 13.4 9.7 11.6 89 1.0 SW 22 32 12 17 - - 0.4
01/05:30am 13.4 10.1 11.5 88 1.0 WSW 20 30 11 16 - - 0.4
01/05:00am 13.4 9.5 12.1 92 0.7 SW 24 35 13 19 - - 0.4
01/04:30am 13.3 9.2 11.5 89 1.0 SW 24 39 13 21 - - 0.2
01/04:00am 13.3 9.2 11.5 89 1.0 SW 24 41 13 22 - - 0.2
01/03:30am 14.0 10.4 11.7 86 1.2 SW 22 37 12 20 - - 0.2
01/03:00am 14.5 9.7 11.5 82 1.6 SW 28 46 15 25 - - 0.2
01/02:58am 14.4 9.5 11.2 81 1.7 SW 28 46 15 25 - - 0.2
01/02:30am 13.8 10.2 11.8 88 1.1 SW 22 35 12 19 - - 0.2
01/02:00am 14.0 10.4 11.7 86 1.2 SW 22 32 12 17 - - 0.2
01/01:30am 13.8 9.4 11.8 88 1.1 SW 26 41 14 22 - - 0.2
01/01:00am 14.3 10.0 12.0 86 1.2 SW 26 37 14 20 - - 0.2
01/12:30am 14.6 9.8 11.6 82 1.6 SSW 28 39 15 21 - - 0.2
01/12:01am 14.4 9.4 12.1 86 1.2 SSW 30 50 16 27 - - 0.2
01/12:00am 14.4 9.4 12.1 86 1.2 SSW 30 44 16 24 - - 0.2
 
Date/Time
EDT
Temp
°C
App
Temp
°C
Dew
Point
Rel
Hum
%
Delta-T
°C
Wind Press
QNH
hPa
Press
MSL
hPa
Rain
since 9 am
mm
Dir
 
Spd
km/h
Gust
km/h
Spd
kts
Gust
kts
31/11:30pm 14.7 9.9 11.8 83 1.6 SSW 28 43 15 23 - - 0.2
31/11:00pm 14.7 10.1 12.2 85 1.4 SW 28 41 15 22 - - 0.2
31/10:30pm 14.7 9.9 11.7 82 1.6 SSW 28 43 15 23 - - 0.2
31/10:00pm 14.8 9.4 12.1 84 1.5 SW 32 44 17 24 - - 0.2
31/09:30pm 14.6 9.3 11.4 81 1.7 SSW 30 46 16 25 - - 0.2
31/09:08pm 14.7 10.1 12.2 85 1.4 SW 28 46 15 25 - - 0.2
31/09:00pm 14.4 10.5 12.1 86 1.2 SW 24 37 13 20 - - 0.2
31/08:49pm 14.2 9.6 12.4 89 1.0 SW 28 50 15 27 - - 0.2
31/08:30pm 14.0 10.3 12.7 92 0.7 SW 24 37 13 20 - - 0.2
31/08:08pm 14.1 9.3 13.0 93 0.6 SW 30 50 16 27 - - 0.2
31/08:00pm 14.3 9.9 12.9 91 0.8 SSW 28 43 15 23 - - 0.2
31/07:30pm 14.6 9.3 12.6 88 1.1 SW 32 44 17 24 - - 0.2
31/07:00pm 14.5 9.3 13.5 94 0.6 SW 33 48 18 26 - - 0.0
31/06:36pm 14.4 10.3 13.9 97 0.3 SW 28 48 15 26 - - 0.0
31/06:30pm 14.1 9.2 13.6 97 0.3 SW 32 46 17 25 - - 0.0
31/06:00pm 14.2 9.7 13.7 97 0.3 SW 30 44 16 24 - - 0.0
31/05:34pm 15.2 10.3 12.7 85 1.4 SW 30 50 16 27 - - 0.0
31/05:30pm 15.6 10.7 12.4 81 1.8 SW 30 44 16 24 - - 0.0
31/05:00pm 15.2 9.8 12.9 86 1.3 SW 33 50 18 27 - - 0.0
31/04:35pm 15.3 10.2 13.2 87 1.2 SW 32 50 17 27 - - 0.0
31/04:30pm 15.6 10.3 13.1 85 1.4 SW 33 50 18 27 - - 0.0
31/04:00pm 15.8 10.5 12.5 81 1.8 SW 32 50 17 27 - - 0.0
31/03:30pm 16.4 11.3 12.0 75 2.4 SW 30 43 16 23 - - 0.0
31/03:14pm 16.7 11.3 12.3 75 2.4 SW 32 50 17 27 - - 0.0
31/03:00pm 16.6 10.4 11.5 72 2.8 SW 35 46 19 25 - - 0.0
31/02:30pm 17.3 11.6 11.3 68 3.3 SW 32 46 17 25 - - 0.0
31/02:00pm 17.6 12.3 11.4 67 3.4 SW 30 44 16 24 - - 0.0
31/01:30pm 17.9 13.1 11.7 67 3.4 SSW 28 43 15 23 - - 0.0
31/01:00pm 17.8 13.6 11.1 65 3.6 SSW 24 37 13 20 - - 0.0
31/12:30pm 18.1 13.8 10.7 62 4.0 SSW 24 41 13 22 - - 0.0
31/12:00pm 17.9 13.5 10.3 61 4.1 SSW 24 39 13 21 - - 0.0
31/11:30am 17.3 13.4 10.9 66 3.5 SSW 22 35 12 19 - - 0.0
31/11:00am 17.1 12.0 10.5 65 3.5 SSW 28 41 15 22 - - 0.0
31/10:30am 16.8 12.4 10.4 66 3.4 SSW 24 35 13 19 - - 0.0
31/10:00am 17.7 13.2 11.5 67 3.4 SSW 26 39 14 21 - - 0.0
31/09:30am 16.5 11.5 10.8 69 3.1 SSW 28 39 15 21 - - 0.0
31/09:00am 16.4 10.9 10.7 69 3.0 SSW 30 44 16 24 - - 0.0
31/08:30am 16.3 10.9 11.0 71 2.8 S 30 43 16 23 - - 0.0
31/08:03am 15.2 10.2 11.0 76 2.2 SSW 28 48 15 26 - - 0.0
31/08:00am 15.3 10.3 11.1 76 2.2 SSW 28 44 15 24 - - 0.0
31/07:30am 15.1 9.9 11.5 79 1.9 SSW 30 43 16 23 - - 0.0
31/07:00am 15.0 9.9 12.0 82 1.6 SSW 30 44 16 24 - - 0.0
31/06:30am 14.8 9.9 11.2 79 1.9 SSW 28 43 15 23 - - 0.0
31/06:00am 15.1 9.7 12.1 82 1.6 SW 32 46 17 25 - - 0.0
31/05:30am 15.0 9.5 11.8 81 1.7 SW 32 46 17 25 - - 0.0
31/05:13am 15.1 10.1 12.1 82 1.6 SSW 30 48 16 26 - - 0.0
31/05:00am 15.2 9.7 12.5 84 1.5 SW 33 46 18 25 - - 0.0
31/04:39am 15.3 10.6 12.1 81 1.7 SSW 28 46 15 25 - - 0.0
31/04:30am 15.4 10.0 12.3 82 1.7 SW 32 46 17 25 - - 0.0
31/04:00am 15.4 10.4 12.3 82 1.7 SSW 30 43 16 23 - - 0.0
31/03:30am 15.4 11.2 12.3 82 1.7 SSW 26 46 14 25 - - 0.0
31/03:00am 15.4 11.0 11.8 79 2.0 SSW 26 46 14 25 - - 0.0
31/02:30am 15.4 11.4 11.8 79 2.0 SSW 24 37 13 20 - - 0.0
31/02:00am 15.3 10.8 11.5 78 2.1 SSW 26 41 14 22 - - 0.0
31/01:30am 15.4 11.5 12.0 80 1.9 SSW 24 37 13 20 - - 0.0
31/01:00am 15.5 11.6 12.1 80 1.9 SSW 24 33 13 18 - - 0.0
31/12:30am 15.5 11.5 11.9 79 2.0 SSW 24 35 13 19 - - 0.0
31/12:00am 15.4 12.9 12.3 82 1.7 SW 17 26 9 14 - - 0.0
 
Date/Time
EDT
Temp
°C
App
Temp
°C
Dew
Point
Rel
Hum
%
Delta-T
°C
Wind Press
QNH
hPa
Press
MSL
hPa
Rain
since 9 am
mm
Dir
 
Spd
km/h
Gust
km/h
Spd
kts
Gust
kts
30/11:30pm 14.8 11.6 11.2 79 1.9 WSW 19 26 10 14 - - 0.0
30/11:00pm 14.4 11.0 10.6 78 2.0 WSW 19 24 10 13 - - 0.0
30/10:30pm 14.7 11.3 10.7 77 2.1 WSW 19 26 10 14 - - 0.0
30/10:00pm 15.0 12.0 10.8 76 2.2 SW 17 22 9 12 - - 0.0
30/09:30pm 15.2 11.2 10.4 73 2.5 SSW 22 35 12 19 - - 0.0
30/09:00pm 15.2 11.6 9.8 70 2.8 SSW 19 30 10 16 - - 0.0
30/08:30pm 15.8 12.4 10.6 71 2.8 SSW 19 28 10 15 - - 0.0
30/08:00pm 16.0 12.2 11.0 72 2.7 SSW 22 33 12 18 - - 0.0
30/07:30pm 17.7 14.2 10.3 62 4.0 SSW 19 30 10 16 - - 0.0
30/07:00pm 17.9 14.7 10.0 60 4.2 SSW 17 24 9 13 - - 0.0
30/06:30pm 18.7 15.7 10.8 60 4.3 S 17 22 9 12 - - 0.0
30/06:00pm 18.8 15.6 10.1 57 4.7 S 17 24 9 13 - - 0.0
30/05:30pm 19.4 16.6 10.1 55 5.0 S 15 22 8 12 - - 0.0
30/05:00pm 19.2 16.3 9.7 54 5.1 S 15 24 8 13 - - 0.0
30/04:30pm 19.1 16.5 9.3 53 5.2 S 13 22 7 12 - - 0.0
30/04:00pm 19.1 16.0 9.0 52 5.3 S 15 20 8 11 - - 0.0
30/03:30pm 20.0 17.0 9.3 50 5.7 S 15 22 8 12 - - 0.0
30/03:00pm 19.1 16.4 9.0 52 5.3 S 13 19 7 10 - - 0.0
30/02:30pm 19.4 16.7 9.0 51 5.5 S 13 22 7 12 - - 0.0
30/02:00pm 20.0 17.6 9.9 52 5.4 S 13 20 7 11 - - 0.0
30/01:30pm 19.8 17.6 10.8 56 4.9 SSE 13 20 7 11 - - 0.0
30/01:00pm 19.5 17.1 10.2 55 5.0 SSE 13 20 7 11 - - 0.0
30/12:30pm 20.4 18.0 10.2 52 5.5 S 13 20 7 11 - - 0.0
30/12:00pm 19.0 16.9 9.8 55 4.9 S 11 19 6 10 - - 0.0
30/11:30am 18.3 15.6 8.8 54 5.0 S 13 20 7 11 - - 0.0
30/11:00am 19.6 17.0 9.5 52 5.4 S 13 19 7 10 - - 0.0
30/10:30am 18.6 16.5 9.7 56 4.7 S 11 19 6 10 - - 0.0
30/10:00am 18.1 16.1 10.0 59 4.3 SSE 11 17 6 9 - - 0.0

Other Formats:

Comma delimited format used in spreadsheet applications
http://www.bom.gov.au/fwo/IDV60801/IDV60801.94846.axf

JavaScript Object Notation format (JSON) in row-major order
http://www.bom.gov.au/fwo/IDV60801/IDV60801.94846.json